Time;durP1;ratioP1;P1;durP2;ratioP2;P2;SDS_P1;SDS_P2;PMS_P1;PMS_P2;Temp;Humidity;BMP_temperature;BMP_pressure;BME280_temperature;BME280_humidity;BME280_pressure;Samples;Min_cycle;Max_cycle;Signal;HPM_P1;HPM_P2
2022/01/17 00:00:25;;;;;;;11.27;3.85;;;;;;;;;;4985299;28;20695;-73
2022/01/17 00:02:52;;;;;;;13.13;3.28;;;;;;;;;;4987643;28;20029;-73
2022/01/17 00:05:19;;;;;;;11.82;3.33;;;;;;;;;;4988369;28;20177;-73
2022/01/17 00:07:45;;;;;;;9.18;3.00;;;;;;;;;;4998731;28;20030;-73
2022/01/17 00:10:12;;;;;;;9.65;2.97;;;;;;;;;;4995183;28;20033;-73
2022/01/17 00:12:44;;;;;;;10.98;3.03;;;;;;;;;;4991412;28;20686;-73
2022/01/17 00:15:21;;;;;;;;;;;;;;;;;;4995840;28;20109;-73
2022/01/17 00:17:53;;;;;;;6.68;2.38;;;;;;;;;;4995514;28;19925;-73
2022/01/17 00:20:25;;;;;;;11.52;2.67;;;;;;;;;;4996537;28;20569;-73
2022/01/17 00:22:52;;;;;;;8.27;2.55;;;;;;;;;;4992615;28;20113;-73
2022/01/17 00:25:18;;;;;;;7.28;2.38;;;;;;;;;;4993962;28;20035;-73
2022/01/17 00:27:45;;;;;;;7.05;2.45;;;;;;;;;;4993289;28;20034;-74
2022/01/17 00:30:11;;;;;;;5.22;2.20;;;;;;;;;;4992182;28;20643;-73
2022/01/17 00:32:37;;;;;;;9.70;3.17;;;;;;;;;;4994446;28;20038;-73
2022/01/17 00:35:03;;;;;;;7.45;2.20;;;;;;;;;;4990608;28;20034;-73
2022/01/17 00:37:30;;;;;;;9.60;2.65;;;;;;;;;;4996638;28;20086;-73
2022/01/17 00:39:56;;;;;;;13.13;2.78;;;;;;;;;;4997424;28;20025;-73
2022/01/17 00:42:23;;;;;;;10.55;2.40;;;;;;;;;;4995209;28;20057;-73
2022/01/17 00:44:49;;;;;;;7.40;3.45;;;;;;;;;;4992555;28;20024;-73
2022/01/17 00:47:15;;;;;;;7.95;2.95;;;;;;;;;;4990419;28;20046;-73
2022/01/17 00:49:42;;;;;;;9.18;3.10;;;;;;;;;;4993070;28;20553;-73
2022/01/17 00:52:08;;;;;;;11.15;2.88;;;;;;;;;;4990472;28;20026;-73
2022/01/17 00:54:34;;;;;;;10.55;2.83;;;;;;;;;;4993629;28;20027;-73
2022/01/17 00:57:00;;;;;;;9.15;2.30;;;;;;;;;;4992904;28;20030;-73
2022/01/17 00:59:26;;;;;;;7.25;2.55;;;;;;;;;;4994912;28;20057;-73
2022/01/17 01:01:53;;;;;;;9.20;3.13;;;;;;;;;;4992618;28;20025;-73
2022/01/17 01:04:20;;;;;;;10.88;3.33;;;;;;;;;;4993594;28;20038;-73
2022/01/17 01:06:46;;;;;;;6.25;2.42;;;;;;;;;;4993096;28;20042;-73
2022/01/17 01:09:12;;;;;;;8.65;2.35;;;;;;;;;;4990650;28;20017;-73
2022/01/17 01:11:39;;;;;;;8.65;3.50;;;;;;;;;;4992961;28;20031;-73
2022/01/17 01:14:05;;;;;;;7.63;2.47;;;;;;;;;;4993294;28;20022;-73
2022/01/17 01:16:34;;;;;;;7.57;2.40;;;;;;;;;;4995148;28;20033;-73
2022/01/17 01:27:44;;;;;;;5.70;1.90;;;;;;;;;;4993709;28;20053;-73
2022/01/17 01:29:50;;;;;;;7.50;3.13;;;;;;;;;;4988913;28;20026;-73
2022/01/17 01:32:24;;;;;;;5.88;2.63;;;;;;;;;;4985762;28;20076;-73
2022/01/17 01:34:53;;;;;;;3.92;1.63;;;;;;;;;;4992446;28;20029;-73
2022/01/17 01:37:19;;;;;;;5.65;2.13;;;;;;;;;;4993362;28;20065;-73
2022/01/17 01:39:49;;;;;;;4.53;1.77;;;;;;;;;;4994500;28;20088;-74
2022/01/17 01:42:17;;;;;;;5.25;1.88;;;;;;;;;;4991976;28;20489;-73
2022/01/17 01:44:44;;;;;;;5.60;1.83;;;;;;;;;;4989924;28;20057;-73
2022/01/17 01:47:11;;;;;;;5.28;1.80;;;;;;;;;;4993228;28;20046;-73
2022/01/17 01:49:37;;;;;;;3.22;1.70;;;;;;;;;;4989290;28;20023;-73
2022/01/17 01:52:03;;;;;;;9.38;2.17;;;;;;;;;;4994471;28;20134;-73
2022/01/17 01:54:29;;;;;;;3.03;1.52;;;;;;;;;;4990860;28;20029;-73
2022/01/17 01:56:55;;;;;;;5.72;1.73;;;;;;;;;;4991628;28;20019;-73
2022/01/17 01:59:22;;;;;;;4.13;1.80;;;;;;;;;;4989722;28;20024;-73
2022/01/17 02:01:49;;;;;;;3.28;1.70;;;;;;;;;;4991800;28;20038;-73
2022/01/17 02:04:15;;;;;;;9.35;2.28;;;;;;;;;;4993545;28;20615;-73
2022/01/17 02:06:42;;;;;;;3.08;1.90;;;;;;;;;;4991884;28;20450;-73
2022/01/17 02:09:08;;;;;;;3.53;1.75;;;;;;;;;;4990641;28;20033;-73
2022/01/17 02:11:34;;;;;;;4.03;1.98;;;;;;;;;;4994320;28;20030;-73
2022/01/17 02:14:01;;;;;;;3.92;1.67;;;;;;;;;;4994832;28;20031;-74
2022/01/17 02:16:27;;;;;;;6.05;2.22;;;;;;;;;;4993486;28;20197;-74
2022/01/17 02:18:53;;;;;;;9.63;1.98;;;;;;;;;;4994194;28;20475;-73
2022/01/17 02:21:32;;;;;;;3.10;1.83;;;;;;;;;;4991553;28;20104;-73
2022/01/17 02:23:58;;;;;;;4.65;1.92;;;;;;;;;;4992115;28;20173;-73
2022/01/17 02:26:25;;;;;;;3.17;1.55;;;;;;;;;;4994755;28;20042;-73
2022/01/17 02:28:52;;;;;;;5.13;1.80;;;;;;;;;;4989901;28;20034;-73
2022/01/17 02:31:19;;;;;;;4.93;2.05;;;;;;;;;;4988773;28;20034;-73
2022/01/17 02:33:46;;;;;;;9.95;2.03;;;;;;;;;;4992513;28;20026;-73
2022/01/17 02:36:12;;;;;;;4.65;2.00;;;;;;;;;;4991352;28;20376;-73
2022/01/17 02:38:39;;;;;;;3.33;1.65;;;;;;;;;;4985398;28;20030;-73
2022/01/17 02:41:06;;;;;;;4.38;1.75;;;;;;;;;;4992422;28;20036;-73
2022/01/17 02:43:32;;;;;;;3.05;1.55;;;;;;;;;;4991118;28;20034;-73
2022/01/17 02:48:26;;;;;;;5.70;1.60;;;;;;;;;;4988311;28;20077;-73
2022/01/17 02:50:53;;;;;;;2.50;1.55;;;;;;;;;;4988766;28;20669;-73
2022/01/17 02:53:19;;;;;;;1.90;1.27;;;;;;;;;;4992714;28;20145;-73
2022/01/17 02:55:49;;;;;;;4.00;2.10;;;;;;;;;;4996139;28;20038;-73
2022/01/17 02:58:16;;;;;;;3.17;1.58;;;;;;;;;;4990880;28;20122;-73
2022/01/17 03:00:42;;;;;;;9.75;2.33;;;;;;;;;;4990076;28;20038;-73
2022/01/17 03:03:13;;;;;;;5.30;1.80;;;;;;;;;;4995411;28;20034;-73
2022/01/17 03:05:39;;;;;;;8.32;1.77;;;;;;;;;;4994532;28;20065;-73
2022/01/17 03:08:06;;;;;;;6.30;1.75;;;;;;;;;;4990259;28;20041;-73
2022/01/17 03:10:43;;;;;;;4.30;1.60;;;;;;;;;;4993935;28;20034;-73
2022/01/17 03:13:13;;;;;;;3.50;1.98;;;;;;;;;;4985358;28;20478;-73
2022/01/17 03:15:40;;;;;;;4.28;1.63;;;;;;;;;;4991531;28;20030;-73
2022/01/17 03:18:07;;;;;;;5.95;1.77;;;;;;;;;;4989604;28;20414;-73
2022/01/17 03:20:34;;;;;;;4.60;1.90;;;;;;;;;;4992142;28;20038;-73
2022/01/17 03:23:01;;;;;;;3.40;2.10;;;;;;;;;;4992356;28;20097;-73
2022/01/17 03:25:27;;;;;;;5.20;2.03;;;;;;;;;;4989648;28;20045;-73
2022/01/17 03:27:53;;;;;;;2.92;1.50;;;;;;;;;;4987867;28;20026;-73
2022/01/17 03:30:20;;;;;;;7.22;1.80;;;;;;;;;;4995211;28;20030;-73
2022/01/17 03:32:46;;;;;;;6.22;1.90;;;;;;;;;;4992957;28;20117;-73
2022/01/17 03:35:12;;;;;;;5.43;1.70;;;;;;;;;;4984433;28;20034;-74
2022/01/17 03:37:38;;;;;;;4.38;1.70;;;;;;;;;;4995032;28;20506;-73
2022/01/17 03:40:05;;;;;;;4.70;2.10;;;;;;;;;;4993496;28;20042;-73
2022/01/17 03:42:31;;;;;;;5.07;2.72;;;;;;;;;;4995577;28;20038;-73
2022/01/17 03:44:57;;;;;;;7.60;2.05;;;;;;;;;;4990526;28;20057;-73
2022/01/17 03:47:23;;;;;;;5.85;3.05;;;;;;;;;;4988683;28;20045;-73
2022/01/17 03:49:49;;;;;;;7.40;3.08;;;;;;;;;;4991512;28;20129;-73
2022/01/17 03:52:16;;;;;;;5.63;3.13;;;;;;;;;;4989380;28;20030;-73
2022/01/17 03:54:42;;;;;;;9.73;3.90;;;;;;;;;;4989088;28;20041;-73
2022/01/17 03:57:08;;;;;;;10.75;3.70;;;;;;;;;;4989031;28;20099;-73
2022/01/17 03:59:34;;;;;;;5.80;3.03;;;;;;;;;;4991189;28;20637;-72
2022/01/17 04:02:01;;;;;;;6.60;3.45;;;;;;;;;;4990896;28;20034;-73
2022/01/17 04:04:27;;;;;;;8.48;4.32;;;;;;;;;;4994232;28;20044;-73
2022/01/17 04:06:53;;;;;;;8.10;4.05;;;;;;;;;;4999121;28;20054;-73
2022/01/17 04:09:19;;;;;;;9.05;4.25;;;;;;;;;;4985621;28;20057;-73
2022/01/17 04:11:46;;;;;;;10.02;5.03;;;;;;;;;;4982404;28;20067;-73
2022/01/17 04:14:12;;;;;;;15.80;6.72;;;;;;;;;;4970198;28;20041;-73
2022/01/17 04:16:38;;;;;;;16.75;7.95;;;;;;;;;;4982773;28;20601;-73
2022/01/17 04:19:05;;;;;;;18.05;8.98;;;;;;;;;;4988924;28;20088;-73
2022/01/17 04:21:35;;;;;;;24.15;9.10;;;;;;;;;;4988049;28;20304;-73
2022/01/17 04:24:01;;;;;;;19.13;8.63;;;;;;;;;;4983090;28;20027;-73
2022/01/17 04:26:27;;;;;;;13.73;8.15;;;;;;;;;;5001826;28;20100;-73
2022/01/17 04:28:53;;;;;;;10.95;6.10;;;;;;;;;;4999097;28;20036;-73
2022/01/17 04:31:20;;;;;;;13.13;5.18;;;;;;;;;;5000007;28;20029;-73
2022/01/17 04:33:46;;;;;;;12.20;5.18;;;;;;;;;;4999824;28;20025;-73
2022/01/17 04:36:12;;;;;;;6.53;3.50;;;;;;;;;;4996042;28;20603;-73
2022/01/17 04:38:39;;;;;;;5.32;2.80;;;;;;;;;;4979801;28;20106;-73
2022/01/17 04:41:13;;;;;;;5.32;2.75;;;;;;;;;;4981337;28;20038;-73
2022/01/17 04:46:06;;;;;;;10.75;4.88;;;;;;;;;;4980681;28;20495;-73
2022/01/17 04:48:32;;;;;;;11.75;6.15;;;;;;;;;;4982489;28;20054;-73
2022/01/17 04:50:59;;;;;;;11.93;6.47;;;;;;;;;;4982198;28;20453;-73
2022/01/17 04:53:28;;;;;;;8.25;4.05;;;;;;;;;;4980615;28;20140;-73
2022/01/17 04:55:55;;;;;;;7.40;3.58;;;;;;;;;;4991823;28;20026;-73
2022/01/17 04:58:21;;;;;;;4.30;2.78;;;;;;;;;;4998902;28;20540;-73
2022/01/17 05:00:48;;;;;;;5.82;3.03;;;;;;;;;;5000578;28;20506;-73
2022/01/17 05:03:18;;;;;;;4.97;2.08;;;;;;;;;;5000528;28;20036;-73
2022/01/17 05:05:44;;;;;;;3.78;1.75;;;;;;;;;;4979904;28;20046;-73
2022/01/17 05:08:11;;;;;;;5.00;1.90;;;;;;;;;;4997692;28;20029;-73
2022/01/17 05:10:37;;;;;;;2.45;1.60;;;;;;;;;;5000394;28;20041;-73
2022/01/17 05:13:03;;;;;;;3.70;2.15;;;;;;;;;;4991227;28;20689;-72
2022/01/17 05:15:46;;;;;;;3.83;1.80;;;;;;;;;;4980847;28;20050;-72
2022/01/17 05:19:47;;;;;;;3.22;1.70;;;;;;;;;;4987507;28;20108;-72
2022/01/17 05:20:59;;;;;;;4.55;2.10;;;;;;;;;;4989795;28;20085;-72
2022/01/17 05:23:25;;;;;;;4.55;2.20;;;;;;;;;;4979198;28;20461;-72
2022/01/17 05:25:51;;;;;;;4.90;1.92;;;;;;;;;;4990388;28;20103;-72
2022/01/17 05:28:17;;;;;;;4.00;1.75;;;;;;;;;;5000951;28;20018;-72
2022/01/17 05:30:43;;;;;;;5.03;2.10;;;;;;;;;;4991789;28;20501;-74
2022/01/17 05:33:10;;;;;;;3.90;1.80;;;;;;;;;;4988007;28;20034;-74
2022/01/17 05:35:36;;;;;;;3.60;1.77;;;;;;;;;;4995841;28;20841;-75
2022/01/17 05:38:02;;;;;;;3.78;1.63;;;;;;;;;;4999361;28;20045;-73
2022/01/17 05:40:28;;;;;;;5.63;2.53;;;;;;;;;;5002728;28;20050;-73
2022/01/17 05:42:55;;;;;;;2.45;1.60;;;;;;;;;;4996922;28;20038;-73
2022/01/17 05:45:21;;;;;;;2.47;1.70;;;;;;;;;;4980512;28;20339;-72
2022/01/17 05:47:47;;;;;;;2.75;1.60;;;;;;;;;;4994635;28;20113;-72
2022/01/17 05:50:14;;;;;;;3.10;1.80;;;;;;;;;;4980546;28;20510;-75
2022/01/17 05:52:41;;;;;;;2.60;1.63;;;;;;;;;;4988980;28;20731;-74
2022/01/17 05:55:08;;;;;;;3.28;1.50;;;;;;;;;;4981823;28;20037;-73
2022/01/17 05:57:34;;;;;;;5.53;1.80;;;;;;;;;;4996764;28;20022;-73
2022/01/17 06:00:00;;;;;;;2.45;1.67;;;;;;;;;;4998305;28;20034;-74
2022/01/17 06:02:27;;;;;;;4.03;1.88;;;;;;;;;;4997692;28;20057;-74
2022/01/17 06:04:53;;;;;;;3.15;1.77;;;;;;;;;;4999030;28;20064;-73
2022/01/17 06:07:19;;;;;;;3.13;1.70;;;;;;;;;;4985081;28;20053;-73
2022/01/17 06:09:46;;;;;;;4.82;2.30;;;;;;;;;;4994320;28;20125;-74
2022/01/17 06:12:12;;;;;;;4.28;1.60;;;;;;;;;;4999376;28;20040;-74
2022/01/17 06:14:39;;;;;;;3.67;2.00;;;;;;;;;;4991499;28;20680;-73
2022/01/17 06:17:05;;;;;;;2.85;2.08;;;;;;;;;;4986745;28;20026;-75
2022/01/17 06:19:32;;;;;;;3.45;2.08;;;;;;;;;;4980337;28;20044;-74
2022/01/17 06:21:58;;;;;;;2.88;1.88;;;;;;;;;;4980977;28;20022;-74
2022/01/17 06:24:24;;;;;;;3.40;1.55;;;;;;;;;;4979757;28;20030;-74
2022/01/17 06:26:51;;;;;;;5.03;1.83;;;;;;;;;;4981514;28;20156;-74
2022/01/17 06:29:18;;;;;;;3.75;1.70;;;;;;;;;;4982990;28;20598;-74
2022/01/17 06:31:44;;;;;;;3.13;1.88;;;;;;;;;;4978204;28;20026;-73
2022/01/17 06:34:11;;;;;;;6.32;1.70;;;;;;;;;;4987413;28;20499;-74
2022/01/17 06:36:41;;;;;;;6.50;1.50;;;;;;;;;;4995312;28;20064;-73
2022/01/17 06:39:07;;;;;;;3.20;1.70;;;;;;;;;;4999080;28;20670;-73
2022/01/17 06:41:34;;;;;;;6.88;1.90;;;;;;;;;;4989529;28;20053;-74
2022/01/17 06:44:00;;;;;;;3.00;1.95;;;;;;;;;;4980926;28;20475;-74
2022/01/17 06:46:26;;;;;;;2.55;1.70;;;;;;;;;;4996525;28;20698;-74
2022/01/17 06:48:53;;;;;;;3.47;1.40;;;;;;;;;;4998702;28;20557;-74
2022/01/17 06:51:19;;;;;;;4.35;1.80;;;;;;;;;;4985170;28;20606;-74
2022/01/17 06:53:45;;;;;;;2.55;1.60;;;;;;;;;;4979559;28;20157;-74
2022/01/17 06:56:12;;;;;;;4.00;1.60;;;;;;;;;;4978094;28;20035;-73
2022/01/17 06:58:40;;;;;;;2.25;1.50;;;;;;;;;;4979332;28;20019;-74
2022/01/17 07:01:06;;;;;;;3.35;1.63;;;;;;;;;;4979484;28;20033;-73
2022/01/17 07:03:33;;;;;;;4.13;1.75;;;;;;;;;;4979700;28;20022;-74
2022/01/17 07:05:59;;;;;;;3.35;1.73;;;;;;;;;;4979213;28;20046;-73
2022/01/17 07:08:25;;;;;;;2.65;1.73;;;;;;;;;;4977139;28;20033;-75
2022/01/17 07:10:51;;;;;;;4.10;1.60;;;;;;;;;;4979767;28;20513;-74
2022/01/17 07:13:18;;;;;;;4.38;1.48;;;;;;;;;;4984202;28;20021;-73
2022/01/17 07:15:44;;;;;;;5.43;2.08;;;;;;;;;;4979666;28;20041;-74
2022/01/17 07:18:12;;;;;;;4.53;1.83;;;;;;;;;;4980253;28;20026;-74
2022/01/17 07:20:38;;;;;;;3.53;1.83;;;;;;;;;;4999023;28;20034;-75
2022/01/17 07:23:05;;;;;;;2.38;1.60;;;;;;;;;;5001967;28;20022;-73
2022/01/17 07:25:31;;;;;;;3.35;1.73;;;;;;;;;;5002237;28;20029;-73
2022/01/17 07:27:57;;;;;;;2.47;1.55;;;;;;;;;;5002706;28;20075;-74
2022/01/17 07:30:24;;;;;;;3.67;1.90;;;;;;;;;;5000717;28;20072;-74
2022/01/17 07:32:50;;;;;;;2.35;1.60;;;;;;;;;;5002451;28;20399;-73
2022/01/17 07:35:17;;;;;;;2.92;1.77;;;;;;;;;;5002071;28;20026;-73
2022/01/17 07:37:43;;;;;;;3.25;1.98;;;;;;;;;;4994254;28;20038;-71
2022/01/17 07:40:10;;;;;;;3.35;2.08;;;;;;;;;;4998200;28;20100;-74
2022/01/17 07:42:36;;;;;;;3.15;1.75;;;;;;;;;;4999950;28;20026;-74
2022/01/17 07:45:11;;;;;;;3.65;1.98;;;;;;;;;;4983634;28;20065;-73
2022/01/17 07:48:44;;;;;;;2.58;1.65;;;;;;;;;;4985033;28;20129;-73
2022/01/17 07:50:24;;;;;;;4.15;2.22;;;;;;;;;;4975150;28;20073;-74
2022/01/17 07:52:52;;;;;;;3.92;2.20;;;;;;;;;;4982548;28;20506;-74
2022/01/17 07:55:19;;;;;;;4.00;1.90;;;;;;;;;;4981700;28;20591;-73
2022/01/17 07:57:46;;;;;;;3.35;1.90;;;;;;;;;;4982419;28;20022;-74
2022/01/17 08:00:14;;;;;;;3.65;1.90;;;;;;;;;;4992319;28;20105;-74
2022/01/17 08:02:40;;;;;;;2.00;1.48;;;;;;;;;;4989989;28;20033;-74
2022/01/17 08:05:08;;;;;;;2.72;1.75;;;;;;;;;;4991897;28;20030;-73
2022/01/17 08:07:34;;;;;;;2.83;1.98;;;;;;;;;;4988100;28;20041;-74
2022/01/17 08:10:00;;;;;;;4.60;1.90;;;;;;;;;;4986127;28;20196;-74
2022/01/17 08:12:26;;;;;;;3.35;1.70;;;;;;;;;;4997757;28;20405;-75
2022/01/17 08:14:57;;;;;;;4.45;1.65;;;;;;;;;;4992274;28;20057;-74
2022/01/17 08:17:23;;;;;;;2.78;1.98;;;;;;;;;;4998410;28;20051;-74
2022/01/17 08:19:49;;;;;;;2.83;1.65;;;;;;;;;;4988884;28;20028;-75
2022/01/17 08:22:16;;;;;;;4.03;2.10;;;;;;;;;;5000636;28;20045;-74
2022/01/17 08:24:42;;;;;;;4.90;2.03;;;;;;;;;;4985631;28;20033;-75
2022/01/17 08:27:08;;;;;;;3.05;1.70;;;;;;;;;;4984063;28;20040;-73
2022/01/17 08:29:34;;;;;;;2.45;1.75;;;;;;;;;;5001515;28;20037;-74
2022/01/17 08:32:05;;;;;;;3.60;1.73;;;;;;;;;;4999607;28;20030;-74
2022/01/17 08:34:31;;;;;;;2.03;1.67;;;;;;;;;;4999848;28;20091;-74
2022/01/17 08:36:57;;;;;;;2.85;1.63;;;;;;;;;;4993954;28;20029;-75
2022/01/17 08:39:24;;;;;;;4.07;1.60;;;;;;;;;;4999428;28;20057;-74
2022/01/17 08:41:51;;;;;;;6.32;1.85;;;;;;;;;;5000663;28;20843;-73
2022/01/17 08:44:19;;;;;;;3.80;1.92;;;;;;;;;;4998773;28;20033;-73
2022/01/17 08:46:45;;;;;;;2.40;1.90;;;;;;;;;;5001371;28;20188;-74
2022/01/17 08:49:11;;;;;;;2.70;1.58;;;;;;;;;;4999328;28;20030;-74
2022/01/17 08:51:38;;;;;;;3.53;1.83;;;;;;;;;;4992700;28;20038;-73
2022/01/17 08:54:05;;;;;;;2.20;1.65;;;;;;;;;;4981095;28;20034;-73
2022/01/17 08:56:31;;;;;;;3.55;2.00;;;;;;;;;;4986701;28;20098;-73
2022/01/17 08:58:58;;;;;;;2.60;1.80;;;;;;;;;;4988106;28;20363;-74
2022/01/17 09:01:24;;;;;;;4.63;2.40;;;;;;;;;;4982868;28;20030;-73
2022/01/17 09:03:51;;;;;;;5.15;3.15;;;;;;;;;;4985566;28;20049;-74
2022/01/17 09:06:17;;;;;;;5.43;2.80;;;;;;;;;;4979815;28;20034;-75
2022/01/17 09:08:44;;;;;;;15.63;11.52;;;;;;;;;;4981251;28;20101;-73
2022/01/17 09:11:10;;;;;;;9.65;7.00;;;;;;;;;;4993556;28;20068;-74
2022/01/17 09:13:36;;;;;;;5.90;4.20;;;;;;;;;;4990291;28;20481;-74
2022/01/17 09:16:03;;;;;;;4.18;2.85;;;;;;;;;;4980449;28;20060;-73
2022/01/17 09:18:29;;;;;;;3.92;2.70;;;;;;;;;;4979100;28;20832;-73
2022/01/17 09:20:55;;;;;;;4.03;2.20;;;;;;;;;;4982054;28;20030;-74
2022/01/17 09:23:22;;;;;;;4.50;2.83;;;;;;;;;;4988045;28;20025;-73
2022/01/17 09:25:48;;;;;;;3.65;2.83;;;;;;;;;;4996637;28;20034;-73
2022/01/17 09:28:14;;;;;;;4.95;2.67;;;;;;;;;;4987126;28;20428;-73
2022/01/17 09:30:41;;;;;;;8.45;4.78;;;;;;;;;;4999996;28;20026;-73
2022/01/17 09:33:07;;;;;;;4.10;3.05;;;;;;;;;;4999804;28;20109;-73
2022/01/17 09:35:33;;;;;;;4.00;2.70;;;;;;;;;;4999974;28;20096;-73
2022/01/17 09:38:00;;;;;;;4.85;2.22;;;;;;;;;;4997420;28;20025;-73
2022/01/17 09:40:26;;;;;;;3.83;2.50;;;;;;;;;;4991654;28;20037;-73
2022/01/17 09:42:54;;;;;;;4.38;2.65;;;;;;;;;;4986455;28;20037;-75
2022/01/17 09:45:21;;;;;;;4.75;2.92;;;;;;;;;;4981796;28;20030;-73
2022/01/17 09:47:48;;;;;;;5.35;3.10;;;;;;;;;;4983324;28;20133;-73
2022/01/17 09:50:19;;;;;;;5.10;2.78;;;;;;;;;;4990517;28;20069;-73
2022/01/17 09:52:47;;;;;;;4.97;3.00;;;;;;;;;;4998443;28;20084;-74
2022/01/17 09:55:21;;;;;;;4.65;3.40;;;;;;;;;;5000906;28;20049;-73
2022/01/17 09:57:47;;;;;;;4.20;3.35;;;;;;;;;;5000340;28;20026;-74
2022/01/17 10:00:14;;;;;;;3.35;2.80;;;;;;;;;;4999720;28;20036;-74
2022/01/17 10:02:41;;;;;;;6.05;3.33;;;;;;;;;;4991032;28;20083;-74
2022/01/17 10:05:08;;;;;;;5.05;3.58;;;;;;;;;;4987952;28;20045;-73
2022/01/17 10:07:53;;;;;;;6.00;2.75;;;;;;;;;;4989731;28;20041;-74
2022/01/17 10:10:38;;;;;;;5.13;2.30;;;;;;;;;;4998543;28;20033;-73
2022/01/17 10:13:11;;;;;;;6.47;2.10;;;;;;;;;;4991841;28;20026;-74
2022/01/17 10:15:48;;;;;;;4.65;2.30;;;;;;;;;;5001105;28;20367;-74
2022/01/17 10:18:27;;;;;;;2.80;1.90;;;;;;;;;;4986635;28;20030;-73
2022/01/17 10:20:59;;;;;;;2.85;1.80;;;;;;;;;;4983061;28;20150;-74
2022/01/17 10:23:43;;;;;;;5.93;2.42;;;;;;;;;;4982050;28;20030;-73
2022/01/17 10:36:46;;;;;;;4.43;2.75;;;;;;;;;;4981891;28;20096;-74
2022/01/17 10:39:12;;;;;;;6.22;3.20;;;;;;;;;;4984087;28;20065;-73
2022/01/17 10:41:39;;;;;;;5.68;2.70;;;;;;;;;;4998272;28;20061;-74
2022/01/17 10:44:06;;;;;;;5.20;3.00;;;;;;;;;;5000156;28;20032;-74
2022/01/17 10:46:32;;;;;;;5.63;2.80;;;;;;;;;;4996319;28;20034;-73
2022/01/17 10:48:58;;;;;;;8.45;4.25;;;;;;;;;;4989443;28;20076;-74
2022/01/17 10:51:29;;;;;;;5.55;3.90;;;;;;;;;;4999892;28;20468;-73
2022/01/17 10:53:55;;;;;;;8.40;4.70;;;;;;;;;;5001168;28;20021;-73
2022/01/17 10:56:24;;;;;;;6.47;4.25;;;;;;;;;;4989805;28;20030;-74
2022/01/17 10:59:01;;;;;;;7.70;3.88;;;;;;;;;;4984216;28;20064;-73
2022/01/17 11:01:36;;;;;;;5.80;3.85;;;;;;;;;;4996800;28;20034;-74
2022/01/17 11:04:09;;;;;;;6.38;3.55;;;;;;;;;;5005393;28;20030;-77
2022/01/17 11:06:46;;;;;;;6.45;3.70;;;;;;;;;;5004011;28;20041;-76
2022/01/17 11:09:12;;;;;;;6.45;3.58;;;;;;;;;;5004341;28;20342;-75
2022/01/17 11:11:39;;;;;;;8.63;3.70;;;;;;;;;;4999440;28;20057;-76
2022/01/17 11:14:09;;;;;;;5.72;3.38;;;;;;;;;;4992111;28;20054;-76
2022/01/17 11:16:36;;;;;;;6.18;3.33;;;;;;;;;;5002733;28;20134;-76
2022/01/17 11:20:02;;;;;;;6.10;3.50;;;;;;;;;;4993812;28;20029;-75
2022/01/17 11:21:50;;;;;;;4.80;3.17;;;;;;;;;;4996905;28;20506;-76
2022/01/17 11:24:16;;;;;;;5.65;3.05;;;;;;;;;;4995290;28;20021;-74
2022/01/17 11:26:43;;;;;;;4.65;3.30;;;;;;;;;;4994551;28;20040;-75
2022/01/17 11:29:12;;;;;;;5.40;3.17;;;;;;;;;;4993186;28;20109;-74
2022/01/17 11:31:38;;;;;;;4.53;2.92;;;;;;;;;;4994543;28;20022;-75
2022/01/17 11:34:09;;;;;;;8.55;3.30;;;;;;;;;;4999400;28;20040;-75
2022/01/17 11:36:35;;;;;;;7.75;3.72;;;;;;;;;;4998381;28;20052;-74
2022/01/17 11:39:02;;;;;;;4.88;3.10;;;;;;;;;;4995403;28;20029;-73
2022/01/17 11:41:30;;;;;;;9.05;3.40;;;;;;;;;;4999331;28;20092;-74
2022/01/17 11:44:00;;;;;;;5.00;2.83;;;;;;;;;;4995222;28;20607;-74
2022/01/17 11:46:29;;;;;;;6.18;2.70;;;;;;;;;;4992597;28;20038;-75
2022/01/17 11:48:57;;;;;;;6.65;3.47;;;;;;;;;;4991515;28;20156;-76
2022/01/17 11:51:23;;;;;;;7.65;3.10;;;;;;;;;;4993688;28;20589;-75
2022/01/17 11:53:51;;;;;;;5.75;3.00;;;;;;;;;;4989926;28;20120;-75
2022/01/17 11:56:35;;;;;;;6.65;3.20;;;;;;;;;;5003768;28;20501;-75
2022/01/17 11:59:01;;;;;;;5.65;2.65;;;;;;;;;;4987170;28;20019;-75
2022/01/17 12:01:27;;;;;;;4.60;2.70;;;;;;;;;;4983291;28;20030;-75
2022/01/17 12:03:54;;;;;;;5.93;2.72;;;;;;;;;;4987253;28;20025;-75
2022/01/17 12:06:34;;;;;;;4.25;2.67;;;;;;;;;;4988319;28;20809;-74
2022/01/17 12:09:19;;;;;;;3.03;2.45;;;;;;;;;;4996410;28;20036;-75
2022/01/17 12:11:46;;;;;;;4.00;2.60;;;;;;;;;;4980792;28;20027;-75
2022/01/17 12:14:22;;;;;;;6.07;3.03;;;;;;;;;;4982008;28;20069;-75
2022/01/17 12:16:48;;;;;;;4.90;2.92;;;;;;;;;;4980802;28;20022;-75
2022/01/17 12:19:14;;;;;;;3.50;2.42;;;;;;;;;;4980607;28;20023;-75
2022/01/17 12:21:47;;;;;;;6.07;2.88;;;;;;;;;;4982190;28;20034;-75
2022/01/17 12:24:32;;;;;;;7.57;3.10;;;;;;;;;;4998030;28;20030;-75
2022/01/17 12:27:00;;;;;;;3.45;2.53;;;;;;;;;;5001118;28;20041;-75
2022/01/17 12:29:42;;;;;;;4.43;2.95;;;;;;;;;;5001622;28;20041;-75
2022/01/17 12:32:20;;;;;;;4.20;3.13;;;;;;;;;;5003135;28;20026;-75
2022/01/17 12:34:46;;;;;;;5.63;3.50;;;;;;;;;;5000878;28;20109;-74
2022/01/17 12:37:31;;;;;;;6.38;3.10;;;;;;;;;;5002284;28;20025;-74
2022/01/17 12:40:27;;;;;;;4.85;3.10;;;;;;;;;;5000844;28;20131;-75
2022/01/17 12:42:59;;;;;;;6.25;3.42;;;;;;;;;;4988142;28;20641;-75
2022/01/17 12:45:39;;;;;;;6.57;4.57;;;;;;;;;;5000023;28;20056;-75
2022/01/17 12:48:09;;;;;;;7.35;3.88;;;;;;;;;;5001346;28;20060;-74
2022/01/17 12:50:37;;;;;;;7.47;4.95;;;;;;;;;;5000180;28;20758;-75
2022/01/17 12:53:04;;;;;;;9.63;4.03;;;;;;;;;;4986847;28;20081;-75
2022/01/17 12:55:35;;;;;;;6.97;3.63;;;;;;;;;;4981489;28;20272;-74
2022/01/17 12:58:02;;;;;;;4.93;3.20;;;;;;;;;;4982712;28;20018;-75
2022/01/17 13:00:28;;;;;;;6.55;2.85;;;;;;;;;;4999195;28;20088;-75
2022/01/17 13:02:56;;;;;;;7.97;3.20;;;;;;;;;;4999113;28;20521;-75
2022/01/17 13:05:24;;;;;;;9.65;3.35;;;;;;;;;;5000994;28;20088;-75
2022/01/17 13:07:50;;;;;;;7.63;3.15;;;;;;;;;;4998707;28;20049;-75
2022/01/17 13:10:17;;;;;;;8.80;3.42;;;;;;;;;;4998785;28;20542;-75
2022/01/17 13:12:43;;;;;;;9.18;3.40;;;;;;;;;;4998668;28;20597;-75
2022/01/17 13:15:11;;;;;;;8.20;3.40;;;;;;;;;;4997900;28;20057;-74
2022/01/17 13:17:38;;;;;;;6.40;3.33;;;;;;;;;;5000409;28;20042;-73
2022/01/17 13:20:05;;;;;;;6.22;3.53;;;;;;;;;;4999889;28;20025;-74
2022/01/17 13:22:39;;;;;;;10.02;4.05;;;;;;;;;;4988474;28;20121;-74
2022/01/17 13:25:06;;;;;;;15.55;5.22;;;;;;;;;;4976758;28;20030;-74
2022/01/17 13:27:33;;;;;;;10.73;6.40;;;;;;;;;;4980855;28;20068;-74
2022/01/17 13:30:05;;;;;;;8.10;4.22;;;;;;;;;;4980389;28;20027;-74
2022/01/17 13:32:35;;;;;;;6.72;3.25;;;;;;;;;;4988412;28;20037;-74
2022/01/17 13:35:07;;;;;;;4.57;3.20;;;;;;;;;;4999451;28;20395;-74
2022/01/17 13:37:34;;;;;;;6.53;2.97;;;;;;;;;;4998791;28;20021;-73
2022/01/17 13:40:00;;;;;;;10.10;3.40;;;;;;;;;;4999630;28;20137;-74
2022/01/17 13:42:26;;;;;;;8.50;3.53;;;;;;;;;;5000113;28;20465;-75
2022/01/17 13:44:53;;;;;;;7.93;3.63;;;;;;;;;;5000388;28;20383;-74
2022/01/17 13:47:20;;;;;;;6.70;3.35;;;;;;;;;;4999524;28;20197;-74
2022/01/17 13:49:50;;;;;;;5.38;2.70;;;;;;;;;;4997574;28;20597;-74
2022/01/17 13:52:18;;;;;;;9.15;3.28;;;;;;;;;;4999137;28;20689;-74
2022/01/17 13:54:51;;;;;;;11.52;2.88;;;;;;;;;;4998898;28;20398;-74
2022/01/17 13:57:21;;;;;;;9.40;2.53;;;;;;;;;;4998757;28;20037;-74
2022/01/17 14:00:14;;;;;;;9.52;3.17;;;;;;;;;;4985006;28;20022;-74
2022/01/17 14:02:41;;;;;;;3.90;2.30;;;;;;;;;;4995694;28;20050;-74
2022/01/17 14:05:12;;;;;;;9.65;2.63;;;;;;;;;;4999175;28;20026;-74
2022/01/17 14:07:42;;;;;;;11.98;3.15;;;;;;;;;;4998406;28;20914;-77
2022/01/17 14:10:19;;;;;;;10.00;3.35;;;;;;;;;;4997679;28;20017;-74
2022/01/17 14:12:45;;;;;;;8.25;2.53;;;;;;;;;;4999307;28;20153;-74
2022/01/17 14:15:11;;;;;;;9.95;2.72;;;;;;;;;;4992624;28;20108;-74
2022/01/17 14:17:37;;;;;;;5.10;2.42;;;;;;;;;;4997943;28;20540;-74
2022/01/17 14:20:10;;;;;;;6.10;2.55;;;;;;;;;;4998372;28;20165;-73
2022/01/17 14:22:46;;;;;;;7.07;3.00;;;;;;;;;;4994359;28;20056;-74
2022/01/17 14:25:20;;;;;;;8.43;3.70;;;;;;;;;;4994182;28;20119;-73
2022/01/17 14:27:56;;;;;;;24.80;9.15;;;;;;;;;;4984548;28;20573;-75
2022/01/17 14:30:27;;;;;;;21.67;10.68;;;;;;;;;;4983837;28;20045;-75
2022/01/17 14:33:08;;;;;;;14.13;4.75;;;;;;;;;;4986916;28;20368;-72
2022/01/17 14:35:34;;;;;;;9.18;3.65;;;;;;;;;;4984975;28;20022;-73
2022/01/17 14:38:01;;;;;;;7.72;3.50;;;;;;;;;;4997876;28;20073;-73
2022/01/17 14:40:31;;;;;;;10.13;3.42;;;;;;;;;;4983449;28;20421;-74
2022/01/17 14:43:10;;;;;;;9.55;3.20;;;;;;;;;;4995600;28;20022;-74
2022/01/17 14:45:38;;;;;;;17.65;5.70;;;;;;;;;;4988210;28;20022;-72
2022/01/17 14:48:13;;;;;;;12.95;6.38;;;;;;;;;;4942137;28;1299229;-74
2022/01/17 14:50:39;;;;;;;18.08;8.25;;;;;;;;;;4988763;28;20195;-74
2022/01/17 14:53:14;;;;;;;13.55;6.60;;;;;;;;;;4988343;28;20037;-74
2022/01/17 15:01:20;;;;;;;8.27;4.18;;;;;;;;;;4987300;28;20052;-73
2022/01/17 15:03:52;;;;;;;11.65;4.03;;;;;;;;;;4997902;28;20065;-73
2022/01/17 15:06:19;;;;;;;;;;;;;;;;;;4994703;28;20030;-74
2022/01/17 15:08:47;;;;;;;5.65;3.03;;;;;;;;;;4989483;28;19913;-73
2022/01/17 15:11:14;;;;;;;7.80;3.10;;;;;;;;;;4999112;28;20157;-73
2022/01/17 15:13:40;;;;;;;5.68;2.50;;;;;;;;;;4994820;28;20491;-73
2022/01/17 15:16:06;;;;;;;7.82;3.47;;;;;;;;;;4985256;28;20868;-73
2022/01/17 15:18:32;;;;;;;9.00;3.10;;;;;;;;;;4993067;28;20112;-73